DAUU/OGX METAR and TAF weather

Enter ICAO airport designator
Station Type Date Time Source
DAUU METAR 2018/11/19 16:44 UTC NOAA

DAUU 191644Z 24006KT 6000 SCT040 SCT100 24/05 Q1004


Station Type Date Time Source
DAUU Decoded METAR 2018/11/19 16:44 UTC NOAA

Ouargla, Algeria (DAUU) 31-55N 005-24E 141M
Nov 19, 2018 - 11:44 AM EST / 2018.11.19 1644 UTC
Wind: from the WSW (240 degrees) at 7 MPH (6 KT):0
Visibility: 3 mile(s):0
Sky conditions: partly cloudy
Temperature: 75 F (24 C)
Dew Point: 41 F (5 C)
Relative Humidity: 29%
Pressure (altimeter): 29.65 in. Hg (1004 hPa)
ob: DAUU 191644Z 24006KT 6000 SCT040 SCT100 24/05 Q1004
cycle: 16

Station Type Date Time Source
DAUU TAF 2017/11/09 18:03 UTC NOAA

TAF DAUU 091700Z 0918/1009 34012KT 9999 FEW040 SCT100 PROB40
TEMPO 0918/0924 34015G25KT 5000 -TSRA FEW036CB


Example: see airport list